createdAt,value
2022-11-07T05:58:50.632Z,3.19
2022-11-07T05:59:54.092Z,3.72
2022-11-07T06:01:02.165Z,3.54
2022-11-07T06:02:04.398Z,3.85
2022-11-07T06:03:08.960Z,3.69
2022-11-07T06:04:12.500Z,3.44
2022-11-07T06:05:14.684Z,3.50
2022-11-07T06:06:17.840Z,3.62
2022-11-07T06:07:19.912Z,3.82
2022-11-07T06:08:23.103Z,3.85
2022-11-07T06:09:25.230Z,3.48
2022-11-07T06:10:28.357Z,3.56
2022-11-07T06:11:33.100Z,3.50
2022-11-07T06:12:35.265Z,3.68
2022-11-07T06:13:38.370Z,3.52
2022-11-07T06:14:40.500Z,3.56
2022-11-07T06:15:46.303Z,3.39
2022-11-07T06:16:49.590Z,3.57
2022-11-07T06:17:51.799Z,3.53
2022-11-07T06:18:54.906Z,3.91
2022-11-07T06:19:56.988Z,3.64
2022-11-07T06:21:02.654Z,3.42
2022-11-07T06:22:04.747Z,3.71
2022-11-07T06:23:08.503Z,3.47
2022-11-07T06:24:15.317Z,3.73
2022-11-07T06:25:17.767Z,3.87
2022-11-07T06:26:21.015Z,3.64
2022-11-07T06:27:23.461Z,4.00
2022-11-07T06:28:27.148Z,3.98
2022-11-07T06:29:29.278Z,3.67
2022-11-07T06:30:33.787Z,3.93
2022-11-07T06:31:38.417Z,3.44
2022-11-07T06:32:44.154Z,3.72
2022-11-07T06:33:49.966Z,3.80
2022-11-07T06:34:52.253Z,3.28
2022-11-07T06:35:55.357Z,3.64
2022-11-07T06:37:02.788Z,3.65
2022-11-07T06:38:11.315Z,4.02
2022-11-07T06:39:14.459Z,4.21
2022-11-07T06:40:16.791Z,4.13
2022-11-07T06:41:20.417Z,3.20
2022-11-07T06:42:25.770Z,3.87
2022-11-07T06:43:33.587Z,3.84
2022-11-07T06:44:35.966Z,4.08
2022-11-07T06:45:39.680Z,3.52
2022-11-07T06:46:46.934Z,3.37
2022-11-07T06:47:50.075Z,3.35
2022-11-07T06:48:54.151Z,3.12
2022-11-07T06:49:56.373Z,3.48
2022-11-07T06:51:00.485Z,3.38
2022-11-07T06:52:02.670Z,3.19
2022-11-07T06:53:08.612Z,3.46
2022-11-07T06:54:11.423Z,3.80
2022-11-07T06:55:14.578Z,3.54
2022-11-07T06:56:17.987Z,3.56
2022-11-07T06:57:20.098Z,3.06
2022-11-07T06:58:24.078Z,3.21
2022-11-07T06:59:26.185Z,3.30
2022-11-07T07:00:30.223Z,4.35
2022-11-07T07:01:38.529Z,3.44
2022-11-07T07:02:57.925Z,3.33
2022-11-07T07:04:01.762Z,3.33
2022-11-07T07:05:04.328Z,3.70
2022-11-07T07:06:10.861Z,2.98
2022-11-07T07:07:13.023Z,3.43
2022-11-07T07:08:16.534Z,3.12
2022-11-07T07:09:20.434Z,3.25
2022-11-07T07:10:25.170Z,3.17
2022-11-07T07:11:28.531Z,3.03
2022-11-07T07:12:30.711Z,3.31
2022-11-07T07:13:33.920Z,3.19
2022-11-07T07:14:36.984Z,3.08
2022-11-07T07:15:50.310Z,3.39
2022-11-07T07:16:54.187Z,3.14
2022-11-07T07:18:00.873Z,2.87
2022-11-07T07:19:04.245Z,3.41
2022-11-07T07:20:07.397Z,3.20
2022-11-07T07:21:12.432Z,3.22
2022-11-07T07:22:14.717Z,3.69
2022-11-07T07:23:19.361Z,4.11
2022-11-07T07:24:21.811Z,4.51
2022-11-07T07:25:25.511Z,4.41
2022-11-07T07:26:28.433Z,5.04
2022-11-07T07:27:31.548Z,5.33
2022-11-07T07:28:34.938Z,5.52
2022-11-07T07:29:37.047Z,6.09
2022-11-07T07:30:40.195Z,6.02
2022-11-07T07:31:43.304Z,6.02
2022-11-07T07:32:45.411Z,5.58
2022-11-07T07:33:50.381Z,6.27
2022-11-07T07:34:52.504Z,5.44
2022-11-07T07:35:55.601Z,5.13
2022-11-07T07:36:57.717Z,4.91
2022-11-07T07:38:00.814Z,4.69
2022-11-07T07:39:03.953Z,4.43
2022-11-07T07:40:07.223Z,3.55
2022-11-07T07:41:10.697Z,3.42
2022-11-07T07:42:12.778Z,3.24
2022-11-07T07:43:16.353Z,3.34
2022-11-07T07:44:19.697Z,3.34
2022-11-07T07:45:21.809Z,3.16
2022-11-07T07:46:25.002Z,2.94
2022-11-07T07:47:27.169Z,2.72
2022-11-07T07:48:31.124Z,2.81
2022-11-07T07:49:35.601Z,2.52
2022-11-07T07:50:37.709Z,2.12
2022-11-07T07:51:40.817Z,2.64
2022-11-07T07:52:42.935Z,2.42
2022-11-07T07:53:45.999Z,2.14
2022-11-07T07:54:48.497Z,2.53
2022-11-07T07:55:52.028Z,2.67
2022-11-07T07:56:55.105Z,2.76
2022-11-07T07:57:58.261Z,2.51
2022-11-07T07:59:02.577Z,2.55
2022-11-07T08:00:06.372Z,1.85
2022-11-07T08:01:10.753Z,2.19
2022-11-07T08:02:14.073Z,2.19
2022-11-07T08:03:17.763Z,2.10
2022-11-07T08:04:20.194Z,2.23
2022-11-07T08:05:24.651Z,2.07
2022-11-07T08:06:27.757Z,2.04
2022-11-07T08:07:29.884Z,2.20
2022-11-07T08:08:37.935Z,2.17
2022-11-07T08:09:41.825Z,2.05
2022-11-07T08:10:43.924Z,2.00
2022-11-07T08:11:47.093Z,1.83
2022-11-07T08:12:51.073Z,2.06
2022-11-07T08:13:58.394Z,2.16
2022-11-07T08:15:03.070Z,2.02
2022-11-07T08:16:08.537Z,2.17
2022-11-07T08:17:10.598Z,2.28
2022-11-07T08:18:13.662Z,2.16
2022-11-07T08:19:16.861Z,2.17
2022-11-07T08:20:20.315Z,2.19
2022-11-07T08:21:24.805Z,2.26
2022-11-07T08:22:27.981Z,2.49
2022-11-07T08:23:31.118Z,2.17
2022-11-07T08:24:34.540Z,2.30
2022-11-07T08:25:38.641Z,2.17
2022-11-07T08:26:42.039Z,2.20
2022-11-07T08:27:44.274Z,1.94
2022-11-07T08:28:48.019Z,2.43
2022-11-07T08:29:50.222Z,2.68
2022-11-07T08:30:57.679Z,2.51
2022-11-07T08:32:00.770Z,2.70
2022-11-07T08:33:03.870Z,2.45
2022-11-07T08:34:07.166Z,2.63
2022-11-07T08:35:09.909Z,2.79
2022-11-07T08:36:13.091Z,2.67
2022-11-07T08:37:16.794Z,2.56
2022-11-07T08:38:19.939Z,3.49
2022-11-07T08:39:22.186Z,2.83
2022-11-07T08:40:25.842Z,2.81
2022-11-07T08:41:29.244Z,3.36
2022-11-07T08:42:31.353Z,3.62
2022-11-07T08:43:34.555Z,2.99
2022-11-07T08:44:38.306Z,2.57
2022-11-07T08:45:41.363Z,1.79
2022-11-07T08:46:44.521Z,2.01
2022-11-07T08:47:46.631Z,2.24
2022-11-07T08:48:50.068Z,2.48
2022-11-07T08:49:52.191Z,7.40
2022-11-07T08:50:56.668Z,7.25
2022-11-07T08:52:00.562Z,3.16
2022-11-07T08:53:05.174Z,2.31
2022-11-07T08:54:08.366Z,2.40
2022-11-07T08:55:10.888Z,2.16
2022-11-07T08:56:14.357Z,2.11
2022-11-07T08:57:16.472Z,2.02
2022-11-07T08:58:20.060Z,1.75
2022-11-07T08:59:23.089Z,1.92
2022-11-07T09:00:26.395Z,1.85
2022-11-07T09:01:29.722Z,1.83
2022-11-07T09:03:08.749Z,1.98
2022-11-07T09:03:58.183Z,1.99
2022-11-07T09:05:00.781Z,1.72
2022-11-07T09:06:04.852Z,1.86
2022-11-07T09:07:06.944Z,2.04
2022-11-07T09:08:11.402Z,1.93
2022-11-07T09:09:16.675Z,1.82
2022-11-07T09:10:20.128Z,2.05
2022-11-07T09:11:23.760Z,1.90
2022-11-07T09:12:25.981Z,1.72
2022-11-07T09:13:29.051Z,1.71
2022-11-07T09:14:31.270Z,2.07
2022-11-07T09:15:34.357Z,1.95
2022-11-07T09:16:37.485Z,1.81
2022-11-07T09:17:39.648Z,1.79
2022-11-07T09:18:42.748Z,1.84
2022-11-07T09:19:45.832Z,1.92
2022-11-07T09:20:48.971Z,2.18
2022-11-07T09:21:52.079Z,1.75
2022-11-07T09:22:56.631Z,1.81
2022-11-07T09:24:01.149Z,1.78
2022-11-07T09:25:04.086Z,2.02
2022-11-07T09:26:07.838Z,1.56
2022-11-07T09:27:10.922Z,1.74
2022-11-07T09:28:13.417Z,1.55
2022-11-07T09:29:16.560Z,1.89
2022-11-07T09:30:20.173Z,1.79
2022-11-07T09:31:23.801Z,1.93
2022-11-07T09:32:43.814Z,1.72
2022-11-07T09:33:47.962Z,1.60
2022-11-07T09:34:55.986Z,1.65
2022-11-07T09:36:02.304Z,1.91
2022-11-07T09:37:05.412Z,1.80
2022-11-07T09:38:07.569Z,1.90
2022-11-07T09:39:12.026Z,1.83
2022-11-07T09:40:30.425Z,1.87
2022-11-07T09:41:49.673Z,1.83
2022-11-07T09:43:08.478Z,1.86
2022-11-07T09:44:28.056Z,1.70
2022-11-07T09:45:46.477Z,1.86
2022-11-07T09:47:00.161Z,1.95
2022-11-07T09:48:07.796Z,1.90
2022-11-07T09:49:17.788Z,1.93
2022-11-07T09:50:30.117Z,1.88
2022-11-07T09:51:38.167Z,1.79
2022-11-07T09:52:49.710Z,1.73
2022-11-07T09:54:00.075Z,1.85
2022-11-07T09:55:14.634Z,1.81
2022-11-07T09:56:16.862Z,1.78
2022-11-07T09:57:21.422Z,1.84
2022-11-07T09:58:29.736Z,1.90
2022-11-07T09:59:41.237Z,1.56
2022-11-07T10:00:43.438Z,1.72
2022-11-07T10:01:46.818Z,1.63
2022-11-07T10:02:55.194Z,1.65
2022-11-07T10:04:23.528Z,1.75
2022-11-07T10:05:37.796Z,1.46
2022-11-07T10:06:49.196Z,2.05
2022-11-07T10:08:04.657Z,1.75
2022-11-07T10:09:17.998Z,1.64
2022-11-07T10:10:34.637Z,1.50
2022-11-07T10:11:43.120Z,1.63
2022-11-07T10:13:11.028Z,1.59
2022-11-07T10:14:28.184Z,1.88
2022-11-07T10:15:46.061Z,1.79
2022-11-07T10:17:03.983Z,1.96
2022-11-07T10:18:26.132Z,1.50
2022-11-07T10:19:41.746Z,1.61
2022-11-07T10:21:16.165Z,1.87
2022-11-07T10:22:42.965Z,1.71
2022-11-07T10:24:03.799Z,1.55
2022-11-07T10:25:22.183Z,1.86
2022-11-07T10:26:29.901Z,1.47
2022-11-07T10:27:33.086Z,1.74
2022-11-07T10:28:45.701Z,1.62
2022-11-07T10:29:52.437Z,1.76
2022-11-07T10:31:01.786Z,1.81
2022-11-07T10:32:19.648Z,1.57
2022-11-07T10:33:37.580Z,1.48
2022-11-07T10:34:51.601Z,1.54
2022-11-07T10:36:03.150Z,1.55
2022-11-07T10:37:06.321Z,1.51
2022-11-07T10:38:19.469Z,1.63
2022-11-07T10:39:22.674Z,1.64
2022-11-07T10:40:31.591Z,1.61
2022-11-07T10:41:39.391Z,1.88
2022-11-07T10:42:43.318Z,1.81
2022-11-07T10:43:52.922Z,1.69
2022-11-07T10:44:59.685Z,1.74
2022-11-07T10:46:03.519Z,1.60
2022-11-07T10:47:16.810Z,1.62
2022-11-07T10:48:19.193Z,1.58
2022-11-07T10:49:24.627Z,1.66
2022-11-07T10:50:27.508Z,1.68
2022-11-07T10:51:39.021Z,1.65
2022-11-07T10:52:42.040Z,1.56
2022-11-07T10:53:46.507Z,1.45
2022-11-07T10:54:49.646Z,1.49
2022-11-07T10:55:54.728Z,1.57
2022-11-07T10:57:04.588Z,1.85
2022-11-07T10:58:07.923Z,1.49
2022-11-07T10:59:14.132Z,1.71
2022-11-07T11:00:26.425Z,2.01
2022-11-07T11:01:29.794Z,1.88
2022-11-07T11:02:46.840Z,1.66
2022-11-07T11:03:50.113Z,1.58
2022-11-07T11:04:55.472Z,1.64
2022-11-07T11:06:08.196Z,1.37
2022-11-07T11:07:14.306Z,1.55
2022-11-07T11:08:20.348Z,1.78
2022-11-07T11:09:26.192Z,1.57
2022-11-07T11:10:31.636Z,1.66
2022-11-07T11:11:37.007Z,1.69
2022-11-07T11:12:46.562Z,1.62
2022-11-07T11:13:50.505Z,1.75
2022-11-07T11:15:05.651Z,1.62
2022-11-07T11:16:24.682Z,1.57
2022-11-07T11:17:27.936Z,1.79
2022-11-07T11:18:30.218Z,1.57
2022-11-07T11:19:42.052Z,1.54
2022-11-07T11:20:54.696Z,1.69
2022-11-07T11:22:00.647Z,1.64
2022-11-07T11:23:07.554Z,1.81
2022-11-07T11:24:19.892Z,1.68
2022-11-07T11:25:24.437Z,2.13
2022-11-07T11:26:33.925Z,1.96
2022-11-07T11:27:41.289Z,1.89
2022-11-07T11:28:48.539Z,1.92
2022-11-07T11:29:59.173Z,1.73
2022-11-07T11:31:05.475Z,1.49
2022-11-07T11:32:24.484Z,1.75
2022-11-07T11:33:38.021Z,1.76
2022-11-07T11:34:59.062Z,1.64
2022-11-07T11:36:10.704Z,1.82
2022-11-07T11:37:18.553Z,1.59
2022-11-07T11:38:28.281Z,2.16
2022-11-07T11:39:40.490Z,1.64
2022-11-07T11:40:50.760Z,1.63
2022-11-07T11:41:57.314Z,1.84
2022-11-07T11:43:18.362Z,2.06
2022-11-07T11:44:31.351Z,1.90
2022-11-07T11:45:52.083Z,1.81
2022-11-07T11:47:05.337Z,2.36
2022-11-07T11:48:23.601Z,1.86
2022-11-07T11:49:35.245Z,1.66
2022-11-07T11:50:46.300Z,1.97
2022-11-07T11:51:55.115Z,1.79
2022-11-07T11:52:59.963Z,2.25
2022-11-07T11:54:04.043Z,1.84
2022-11-07T11:55:15.102Z,1.69
2022-11-07T11:56:31.105Z,1.77
2022-11-07T11:57:46.723Z,1.71
2022-11-07T11:59:02.749Z,1.83
2022-11-07T12:00:20.447Z,1.58
2022-11-07T12:01:34.857Z,1.36
2022-11-07T12:03:02.106Z,1.66
2022-11-07T12:04:29.701Z,1.76
2022-11-07T12:06:10.790Z,1.77
2022-11-07T12:07:38.171Z,1.52
2022-11-07T12:09:13.986Z,1.64
2022-11-07T12:10:30.418Z,1.39
2022-11-07T12:11:44.093Z,1.65
2022-11-07T12:13:00.511Z,1.49
2022-11-07T12:14:22.310Z,1.50
2022-11-07T12:15:39.821Z,1.37
2022-11-07T12:16:53.609Z,1.51
2022-11-07T12:18:04.452Z,1.71
2022-11-07T12:19:24.431Z,1.62
2022-11-07T12:20:33.939Z,1.62
2022-11-07T12:21:49.302Z,1.58
2022-11-07T12:23:17.893Z,1.48
2022-11-07T12:24:39.108Z,1.49
2022-11-07T12:25:51.334Z,1.59
2022-11-07T12:27:06.861Z,1.60
2022-11-07T12:28:29.153Z,1.59
2022-11-07T12:29:52.116Z,1.69
2022-11-07T12:31:08.097Z,1.60
2022-11-07T12:32:19.431Z,1.43
2022-11-07T12:33:34.840Z,1.55
2022-11-07T12:35:02.684Z,1.50
2022-11-07T12:36:18.470Z,1.36
2022-11-07T12:37:59.948Z,1.24
2022-11-07T12:39:20.441Z,1.55
2022-11-07T12:40:36.092Z,1.41
2022-11-07T12:41:51.675Z,1.40
2022-11-07T12:43:13.652Z,1.18
2022-11-07T12:44:38.243Z,1.54
2022-11-07T12:45:52.490Z,1.60
2022-11-07T12:46:59.118Z,1.55
2022-11-07T12:48:28.986Z,1.59
2022-11-07T12:49:59.510Z,1.40
2022-11-07T12:51:15.506Z,1.53
2022-11-07T12:52:36.040Z,1.50
2022-11-07T12:53:52.904Z,1.59
2022-11-07T12:55:03.265Z,1.54
2022-11-07T12:56:13.131Z,1.54
2022-11-07T12:57:20.316Z,1.80
2022-11-07T12:58:27.045Z,1.59
2022-11-07T12:59:34.483Z,1.45
2022-11-07T13:00:39.219Z,1.29
2022-11-07T13:01:53.241Z,1.44
2022-11-07T13:03:15.511Z,1.36
2022-11-07T13:04:29.137Z,1.49
2022-11-07T13:05:50.143Z,1.43
2022-11-07T13:07:00.953Z,1.44
2022-11-07T13:08:13.169Z,1.28
2022-11-07T13:09:29.877Z,1.47
2022-11-07T13:10:44.454Z,1.39
2022-11-07T13:11:55.976Z,1.38
2022-11-07T13:13:04.090Z,1.61
2022-11-07T13:14:24.635Z,1.53
2022-11-07T13:15:31.808Z,1.40
2022-11-07T13:16:52.744Z,1.55
2022-11-07T13:17:55.945Z,1.31
2022-11-07T13:19:32.798Z,1.28
2022-11-07T13:20:36.463Z,1.26
2022-11-07T13:21:43.488Z,1.28
2022-11-07T13:22:46.898Z,1.46
2022-11-07T13:23:50.568Z,1.30
2022-11-07T13:25:09.436Z,1.35
2022-11-07T13:26:44.973Z,1.42
2022-11-07T13:27:42.965Z,1.45
2022-11-07T13:28:58.134Z,1.38
2022-11-07T13:30:19.566Z,1.17
2022-11-07T13:31:38.506Z,1.32
2022-11-07T13:32:43.727Z,1.10
2022-11-07T13:33:46.912Z,1.21
2022-11-07T13:34:54.446Z,1.29
2022-11-07T13:36:00.348Z,1.45
2022-11-07T13:37:05.988Z,1.43
2022-11-07T13:38:14.885Z,1.25
2022-11-07T13:39:19.141Z,1.27
2022-11-07T13:40:28.014Z,1.25
2022-11-07T13:41:31.752Z,1.46
2022-11-07T13:42:36.672Z,1.38
2022-11-07T13:43:43.292Z,1.22
2022-11-07T13:44:54.662Z,1.10
2022-11-07T13:46:00.897Z,1.19
2022-11-07T13:47:10.412Z,1.32
2022-11-07T13:48:21.026Z,1.38
2022-11-07T13:49:29.315Z,1.39
2022-11-07T13:50:41.585Z,1.12
2022-11-07T13:51:48.560Z,1.36
2022-11-07T13:52:59.272Z,1.19
2022-11-07T13:54:14.874Z,1.25
2022-11-07T13:55:23.721Z,1.20
2022-11-07T13:56:34.716Z,1.34
2022-11-07T13:57:42.652Z,1.24
2022-11-07T13:58:45.758Z,1.30
2022-11-07T13:59:54.845Z,1.13
2022-11-07T14:01:05.825Z,1.28
2022-11-07T14:02:20.699Z,1.38
2022-11-07T14:03:29.217Z,1.18
2022-11-07T14:04:44.610Z,1.13
2022-11-07T14:05:58.975Z,1.19
2022-11-07T14:07:04.385Z,1.30
2022-11-07T14:08:16.999Z,1.20
2022-11-07T14:09:22.397Z,1.20
2022-11-07T14:10:30.645Z,1.29
2022-11-07T14:11:38.026Z,1.27
2022-11-07T14:12:41.341Z,1.07
2022-11-07T14:13:47.352Z,1.08
2022-11-07T14:14:53.348Z,1.17
2022-11-07T14:16:00.836Z,1.33
2022-11-07T14:17:04.469Z,1.15
2022-11-07T14:18:08.303Z,1.32
2022-11-07T14:19:17.512Z,1.16
2022-11-07T14:20:21.117Z,1.02
2022-11-07T14:21:27.440Z,1.10
2022-11-07T14:22:29.518Z,1.40
2022-11-07T14:23:34.126Z,1.40
2022-11-07T14:24:37.608Z,1.34
2022-11-07T14:25:40.664Z,1.20
2022-11-07T14:26:44.043Z,1.14
2022-11-07T14:27:46.621Z,1.21
2022-11-07T14:28:51.407Z,1.38
2022-11-07T14:29:54.264Z,1.82
2022-11-07T14:30:57.479Z,1.87
2022-11-07T14:32:02.532Z,1.85
2022-11-07T14:33:07.398Z,1.95
2022-11-07T14:34:20.817Z,1.77
2022-11-07T14:35:26.875Z,1.63
2022-11-07T14:36:31.400Z,1.97
2022-11-07T14:37:36.643Z,1.55
2022-11-07T14:38:47.150Z,2.12
2022-11-07T14:39:50.111Z,1.90
2022-11-07T14:40:55.478Z,1.66
2022-11-07T14:42:01.900Z,1.27
2022-11-07T14:43:04.757Z,1.28
2022-11-07T14:44:12.894Z,1.24
2022-11-07T14:45:39.196Z,1.37
2022-11-07T14:46:43.411Z,1.43
2022-11-07T14:47:48.364Z,1.59
2022-11-07T14:48:52.283Z,1.76
2022-11-07T14:49:57.130Z,1.51
2022-11-07T14:51:01.961Z,1.38
2022-11-07T14:52:05.941Z,1.27
2022-11-07T14:53:15.060Z,1.24
2022-11-07T14:54:21.996Z,1.49
2022-11-07T14:55:31.351Z,1.84
2022-11-07T14:56:40.507Z,1.51
2022-11-07T14:57:42.767Z,1.50
2022-11-07T14:58:47.397Z,1.72
2022-11-07T14:59:49.837Z,1.51
2022-11-07T15:00:56.046Z,1.21
2022-11-07T15:02:04.606Z,1.30
2022-11-07T15:03:07.959Z,1.57
2022-11-07T15:04:24.622Z,1.90
2022-11-07T15:05:31.846Z,1.70
2022-11-07T15:06:43.949Z,1.42
2022-11-07T15:07:50.924Z,1.30
2022-11-07T15:08:59.971Z,1.40
2022-11-07T15:10:19.373Z,2.26
2022-11-07T15:11:29.982Z,1.67
2022-11-07T15:12:49.904Z,1.46
2022-11-07T15:13:54.090Z,1.30
2022-11-07T15:15:10.059Z,1.63
2022-11-07T15:16:18.088Z,1.82
2022-11-07T15:17:24.522Z,1.50
2022-11-07T15:18:29.002Z,1.74
2022-11-07T15:19:35.676Z,1.70
2022-11-07T15:20:40.889Z,1.56
2022-11-07T15:21:53.437Z,1.52
2022-11-07T15:22:56.619Z,1.82
2022-11-07T15:24:01.879Z,1.52
2022-11-07T15:25:24.287Z,1.46
2022-11-07T15:26:32.875Z,1.76
2022-11-07T15:27:40.182Z,1.42
2022-11-07T15:28:48.264Z,1.13
2022-11-07T15:29:53.002Z,1.79
2022-11-07T15:30:59.125Z,1.76
2022-11-07T15:32:11.580Z,1.51
2022-11-07T15:33:17.066Z,1.48
2022-11-07T15:34:33.928Z,1.52
2022-11-07T15:35:49.784Z,1.34
2022-11-07T15:36:53.007Z,1.80
2022-11-07T15:37:57.372Z,1.44
2022-11-07T15:39:00.766Z,1.37
2022-11-07T15:40:10.159Z,1.41
2022-11-07T15:41:13.619Z,1.38
2022-11-07T15:42:16.178Z,1.55
2022-11-07T15:43:19.825Z,1.68
2022-11-07T15:44:21.991Z,1.66
2022-11-07T15:45:25.619Z,1.72
2022-11-07T15:46:36.156Z,1.53
2022-11-07T15:47:38.809Z,1.36
2022-11-07T15:48:43.332Z,1.69
2022-11-07T15:49:46.024Z,1.89
2022-11-07T15:50:51.257Z,1.68
2022-11-07T15:51:53.416Z,1.53
2022-11-07T15:52:56.607Z,1.68
2022-11-07T15:53:59.096Z,1.71
2022-11-07T15:55:02.252Z,1.92
2022-11-07T15:56:29.162Z,1.65
2022-11-07T15:57:33.537Z,1.81
2022-11-07T15:58:36.779Z,1.90
2022-11-07T15:59:39.970Z,1.73
2022-11-07T16:00:42.418Z,1.69
2022-11-07T16:01:45.759Z,1.56
2022-11-07T16:02:48.787Z,1.73
2022-11-07T16:03:52.123Z,1.73
2022-11-07T16:04:54.240Z,1.70
2022-11-07T16:06:02.060Z,1.58
2022-11-07T16:07:05.339Z,1.78
2022-11-07T16:08:09.511Z,1.63
2022-11-07T16:09:16.138Z,1.55
2022-11-07T16:10:21.603Z,1.61
2022-11-07T16:11:24.911Z,1.72
2022-11-07T16:12:26.988Z,1.48
2022-11-07T16:13:30.243Z,1.71
2022-11-07T16:14:49.089Z,1.81
2022-11-07T16:15:59.448Z,1.86
2022-11-07T16:17:03.396Z,1.31
2022-11-07T16:18:06.832Z,1.51
2022-11-07T16:19:15.611Z,1.72
2022-11-07T16:20:21.723Z,1.85
2022-11-07T16:21:26.205Z,1.58
2022-11-07T16:22:28.399Z,1.56
2022-11-07T16:23:31.635Z,1.65
2022-11-07T16:24:34.787Z,1.59
2022-11-07T16:25:40.663Z,1.84
2022-11-07T16:26:47.303Z,1.69
2022-11-07T16:27:53.864Z,1.97
2022-11-07T16:28:57.391Z,1.68
2022-11-07T16:30:00.489Z,1.93
2022-11-07T16:31:03.767Z,1.62
2022-11-07T16:32:07.038Z,1.87
2022-11-07T16:33:12.043Z,1.66
2022-11-07T16:34:15.163Z,1.62
2022-11-07T16:35:19.747Z,1.65
2022-11-07T16:36:28.538Z,1.40
2022-11-07T16:37:31.741Z,1.77
2022-11-07T16:38:36.257Z,2.03
2022-11-07T16:39:39.448Z,1.74
2022-11-07T16:40:42.578Z,1.67
2022-11-07T16:41:45.789Z,1.24
2022-11-07T16:42:47.942Z,1.53
2022-11-07T16:43:51.211Z,1.70
2022-11-07T16:44:54.463Z,1.68
2022-11-07T16:45:58.297Z,1.80
2022-11-07T16:47:01.819Z,1.44
2022-11-07T16:48:05.609Z,1.91
2022-11-07T16:49:16.377Z,1.67
2022-11-07T16:50:19.656Z,1.84
2022-11-07T16:51:23.791Z,1.88
2022-11-07T16:52:29.277Z,2.33
2022-11-07T16:53:32.386Z,1.72
2022-11-07T16:54:34.556Z,1.75
2022-11-07T16:55:40.055Z,1.81
2022-11-07T16:56:43.196Z,1.79
2022-11-07T16:57:47.181Z,2.45
2022-11-07T16:58:49.449Z,2.00
2022-11-07T16:59:52.901Z,1.73
2022-11-07T17:00:56.898Z,2.04
2022-11-07T17:02:00.337Z,1.75
2022-11-07T17:03:03.661Z,1.73
2022-11-07T17:04:08.112Z,1.92
2022-11-07T17:05:11.436Z,2.17
2022-11-07T17:06:21.033Z,1.82
2022-11-07T17:07:23.857Z,1.85
2022-11-07T17:08:36.178Z,1.78
2022-11-07T17:09:38.447Z,1.59
2022-11-07T17:10:41.577Z,1.91
2022-11-07T17:11:44.994Z,1.58
2022-11-07T17:12:47.211Z,1.51
2022-11-07T17:13:50.502Z,1.78
2022-11-07T17:14:53.984Z,1.56
2022-11-07T17:15:58.181Z,1.53
2022-11-07T17:17:03.912Z,1.62
2022-11-07T17:18:08.383Z,1.55
2022-11-07T17:19:14.916Z,1.76
2022-11-07T17:20:41.132Z,1.94
2022-11-07T17:21:49.319Z,1.80
2022-11-07T17:22:51.534Z,2.13
2022-11-07T17:23:58.297Z,1.78
2022-11-07T17:25:01.428Z,1.93
2022-11-07T17:26:03.620Z,1.98
2022-11-07T17:27:21.551Z,2.00
2022-11-07T17:28:23.738Z,2.02
2022-11-07T17:29:27.792Z,1.57
2022-11-07T17:30:30.024Z,1.64
2022-11-07T17:31:33.178Z,1.96
2022-11-07T17:32:36.334Z,1.83
2022-11-07T17:33:38.534Z,1.77
2022-11-07T17:34:41.823Z,1.94
2022-11-07T17:35:45.415Z,2.04
2022-11-07T17:36:52.066Z,1.90
2022-11-07T17:37:55.346Z,1.85
2022-11-07T17:39:01.699Z,1.35
2022-11-07T17:40:06.846Z,1.49
2022-11-07T17:41:20.028Z,1.65
2022-11-07T17:42:23.686Z,1.64
2022-11-07T17:43:27.371Z,1.81
2022-11-07T17:44:30.539Z,1.39
2022-11-07T17:45:34.022Z,1.94
2022-11-07T17:46:41.113Z,1.47
2022-11-07T17:47:43.220Z,1.62
2022-11-07T17:48:47.486Z,1.50
2022-11-07T17:49:50.703Z,1.77
2022-11-07T17:50:52.797Z,1.66
2022-11-07T17:51:56.363Z,1.63
2022-11-07T17:52:59.474Z,1.67
2022-11-07T17:54:03.238Z,1.86
2022-11-07T17:55:07.506Z,1.70
2022-11-07T17:56:18.038Z,1.25
2022-11-07T17:57:20.350Z,1.58
2022-11-07T17:58:33.090Z,1.63
2022-11-07T17:59:44.787Z,1.84
2022-11-07T18:00:48.961Z,1.84
2022-11-07T18:01:51.426Z,1.80
2022-11-07T18:02:55.180Z,1.84
2022-11-07T18:03:59.238Z,1.83
2022-11-07T18:05:01.442Z,1.79
2022-11-07T18:06:04.726Z,1.88
2022-11-07T18:07:07.859Z,1.76
2022-11-07T18:08:24.988Z,1.85
2022-11-07T18:09:35.123Z,1.97
2022-11-07T18:10:38.284Z,1.88
2022-11-07T18:11:40.392Z,1.86
2022-11-07T18:12:44.188Z,1.66
2022-11-07T18:13:47.680Z,2.01
2022-11-07T18:14:51.035Z,1.82
2022-11-07T18:15:53.230Z,1.89
2022-11-07T18:16:56.409Z,1.58
2022-11-07T18:17:59.660Z,1.81
2022-11-07T18:19:02.501Z,1.70
2022-11-07T18:20:07.210Z,1.68
2022-11-07T18:21:14.034Z,1.89
2022-11-07T18:22:17.221Z,2.24
2022-11-07T18:24:25.114Z,2.05
2022-11-07T18:25:30.990Z,1.86
2022-11-07T18:26:35.302Z,2.08
2022-11-07T18:27:37.404Z,1.72
2022-11-07T18:28:42.622Z,1.85
2022-11-07T18:29:45.756Z,1.57
2022-11-07T18:31:31.648Z,1.56
2022-11-07T18:34:29.334Z,1.58
2022-11-07T18:35:31.458Z,1.70
2022-11-07T18:36:37.764Z,1.70
2022-11-07T18:37:40.044Z,1.38
2022-11-07T18:39:02.799Z,1.64
2022-11-07T18:40:06.992Z,1.56
2022-11-07T18:41:15.315Z,1.66
2022-11-07T18:42:18.471Z,1.99
2022-11-07T18:43:20.569Z,1.76
2022-11-07T18:44:23.938Z,1.45
2022-11-07T18:45:26.306Z,1.75
2022-11-07T18:46:29.488Z,1.55
2022-11-07T18:47:33.858Z,1.71
2022-11-07T18:48:37.947Z,1.83
2022-11-07T18:49:41.130Z,1.68
2022-11-07T18:50:50.508Z,1.78
2022-11-07T18:51:54.515Z,1.75
2022-11-07T18:53:05.016Z,1.60
2022-11-07T18:54:08.343Z,2.00
2022-11-07T18:56:31.213Z,1.98
2022-11-07T18:57:34.386Z,1.91
2022-11-07T18:58:37.647Z,1.65
2022-11-07T18:59:40.752Z,1.74
2022-11-07T19:00:45.510Z,2.03
2022-11-07T19:01:48.865Z,1.87
2022-11-07T19:02:51.666Z,2.11
2022-11-07T19:03:56.508Z,2.22
2022-11-07T19:04:59.958Z,1.63
2022-11-07T19:06:07.528Z,1.83
2022-11-07T19:07:10.792Z,1.80
2022-11-07T19:08:14.174Z,1.76
2022-11-07T19:09:16.574Z,1.80
2022-11-07T19:10:20.080Z,1.80
2022-11-07T19:11:25.747Z,2.06
2022-11-07T19:12:30.787Z,1.68
2022-11-07T19:13:37.123Z,1.68
2022-11-07T19:14:40.202Z,1.51
2022-11-07T19:15:42.398Z,1.52
2022-11-07T19:16:45.509Z,1.61
2022-11-07T19:17:48.620Z,1.72
2022-11-07T19:18:52.788Z,1.84
2022-11-07T19:21:41.396Z,1.72
2022-11-07T19:22:46.823Z,1.82
2022-11-07T19:24:54.948Z,1.86
2022-11-07T19:25:58.274Z,1.60
2022-11-07T19:27:01.944Z,1.97
2022-11-07T19:28:07.109Z,1.82
2022-11-07T19:29:10.007Z,1.91
2022-11-07T19:30:14.940Z,1.61
2022-11-07T19:31:17.372Z,1.63
2022-11-07T19:32:20.481Z,1.71
2022-11-07T19:33:23.665Z,1.81
2022-11-07T19:34:26.969Z,1.90
2022-11-07T19:35:29.209Z,1.54
2022-11-07T19:36:32.958Z,1.59
2022-11-07T19:37:35.097Z,1.80
2022-11-07T19:38:38.532Z,1.73
2022-11-07T19:39:41.665Z,1.84
2022-11-07T19:40:49.159Z,2.47
2022-11-07T19:41:52.489Z,2.08
2022-11-07T19:42:56.235Z,2.41
2022-11-07T19:44:04.182Z,2.14
2022-11-07T19:45:07.263Z,1.98
2022-11-07T19:46:14.410Z,1.83
2022-11-07T19:47:17.603Z,1.90
2022-11-07T19:48:20.251Z,1.72
2022-11-07T19:49:23.422Z,1.78
2022-11-07T19:50:25.611Z,1.65
2022-11-07T19:51:28.835Z,1.83
2022-11-07T19:52:31.945Z,1.75
2022-11-07T19:53:34.134Z,1.90
2022-11-07T19:54:37.410Z,2.03
2022-11-07T19:55:39.567Z,1.87
2022-11-07T19:56:43.025Z,1.72
2022-11-07T19:57:45.160Z,1.91
2022-11-07T19:58:48.364Z,1.90
2022-11-07T19:59:52.619Z,1.97
2022-11-07T20:00:55.825Z,1.90
2022-11-07T20:02:30.508Z,1.56
2022-11-07T20:03:22.431Z,1.80
2022-11-07T20:04:25.889Z,1.67
2022-11-07T20:05:34.098Z,1.72
2022-11-07T20:06:39.583Z,1.78
2022-11-07T20:07:42.706Z,1.71
2022-11-07T20:08:46.388Z,1.61
2022-11-07T20:09:49.839Z,1.74
2022-11-07T20:10:52.054Z,1.83
2022-11-07T20:11:55.224Z,1.53
2022-11-07T20:12:58.423Z,2.14
2022-11-07T20:14:03.617Z,2.29
2022-11-07T20:15:10.316Z,1.76
2022-11-07T20:16:14.742Z,2.21
2022-11-07T20:17:16.907Z,2.34
2022-11-07T20:18:20.035Z,1.99
2022-11-07T20:19:23.198Z,2.23
2022-11-07T20:20:25.321Z,2.31
2022-11-07T20:21:29.234Z,3.78
2022-11-07T20:22:31.360Z,4.05
2022-11-07T20:23:35.351Z,3.27
2022-11-07T20:24:37.677Z,4.12
2022-11-07T20:25:42.148Z,5.20
2022-11-07T20:26:45.880Z,6.56
2022-11-07T20:27:49.145Z,6.65
2022-11-07T20:28:52.131Z,7.74
2022-11-07T20:29:56.602Z,8.84
2022-11-07T20:31:01.278Z,11.75
2022-11-07T20:32:04.539Z,14.17
2022-11-07T20:33:07.810Z,13.97
2022-11-07T20:34:18.394Z,10.83
2022-11-07T20:35:20.573Z,9.62
2022-11-07T20:36:23.729Z,10.55
2022-11-07T20:37:25.873Z,6.84
2022-11-07T20:38:29.699Z,4.04
2022-11-07T20:39:31.846Z,2.67
2022-11-07T20:40:35.085Z,2.01
2022-11-07T20:41:38.393Z,1.82
2022-11-07T20:42:40.587Z,1.86
2022-11-07T20:43:44.465Z,1.63
2022-11-07T20:44:48.062Z,1.73
2022-11-07T20:45:50.372Z,1.94
2022-11-07T20:46:56.847Z,1.81
2022-11-07T20:48:00.009Z,1.72
2022-11-07T20:49:04.374Z,1.78
2022-11-07T20:50:08.376Z,1.50
2022-11-07T20:51:14.403Z,1.75
2022-11-07T20:52:17.513Z,1.71
2022-11-07T20:53:19.993Z,1.58
2022-11-07T20:54:23.264Z,1.73
2022-11-07T20:55:25.495Z,2.00
2022-11-07T20:56:29.856Z,1.81